Montana Women's Run — Results
Billings, Montana, United States
1st Place
Sarah Lord
2 Mile
12:07
2nd Place
Mary Owen
2 Mile
12:12
3rd Place
Taylee Chirrick
2 Mile
12:29
| # | Bib | Name | Gender | Gender Rank | Age Group | AG Rank | Finish Time | Pace |
|---|---|---|---|---|---|---|---|---|
| 451 | 1785 | I. Coppola | Female | — | — | — | 24:55 | 12:28 /mi |
| 452 | 1345 | Angela Spint | Female | — | F 40-44 | 44 | 24:56 | 12:28 /mi |
| 453 | 466 | Brittany Homer | Female | — | F 35-39 | 40 | 24:57 | 12:28 /mi |
| 454 | 4945 | G. Henry | Female | — | — | — | 24:58 | 12:29 /mi |
| 455 | 3907 | Leslie Blair | Female | — | F 65-69 | 8 | 24:59 | 12:29 /mi |
| 456 | 413 | I. Blair | Female | — | — | — | 24:59 | 12:29 /mi |
| 457 | 1120 | Felicia Schenderline | Female | — | F 55-59 | 19 | 25:00 | 12:30 /mi |
| 458 | 2520 | Fredericka Blackwolf | Female | — | F 16-19 | 25 | 25:01 | 12:30 /mi |
| 459 | 412 | Anne Blair | Female | — | F 50-54 | 18 | 25:01 | 12:30 /mi |
| 460 | 1843 | Abby Kiser | Female | — | F 13-15 | 51 | 25:02 | 12:31 /mi |
| 461 | 4216 | Alethea Shaules | Female | — | F 30-34 | 34 | 25:04 | 12:32 /mi |
| 462 | 4217 | A. Johansen | Female | — | — | — | 25:06 | 12:33 /mi |
| 463 | 2015 | a. gross | Female | — | — | — | 25:07 | 12:33 /mi |
| 464 | 4959 | k. bang | Female | — | — | — | 25:07 | 12:33 /mi |
| 465 | 1116 | Makayla Smart Enemy | Female | — | F 25-29 | 41 | 25:07 | 12:34 /mi |
| 466 | 1117 | Heather Smith | Female | — | F 35-39 | 41 | 25:08 | 12:34 /mi |
| 467 | 2014 | nicole gross | Female | — | F 40-44 | 45 | 25:10 | 12:35 /mi |
| 468 | 588 | ALEXYS LYLE | Female | — | F 20-24 | 42 | 25:13 | 12:37 /mi |
| 469 | 3602 | Kaitlin Hagfeldt | Female | — | F 25-29 | 42 | 25:19 | 12:39 /mi |
| 470 | 3600 | Kelly Simanton | Female | — | F 30-34 | 35 | 25:19 | 12:40 /mi |
| 471 | 1763 | Lea Sorenson | Female | — | F 50-54 | 19 | 25:20 | 12:40 /mi |
| 472 | 5126 | Shannon ODonnell | Female | — | F 55-59 | 20 | 25:20 | 12:40 /mi |
| 473 | 1762 | Haley Sorenson | Female | — | F 30-34 | 36 | 25:21 | 12:41 /mi |
| 474 | 2039 | Mie Williams | Female | — | F 45-49 | 22 | 25:22 | 12:41 /mi |
| 475 | 341 | Brittney Powers | Female | — | F 25-29 | 43 | 25:23 | 12:41 /mi |
| 476 | 1213 | Mercie Hodges | Female | — | F 20-24 | 43 | 25:23 | 12:41 /mi |
| 477 | 2011 | Michelle Smith | Female | — | F 50-54 | 20 | 25:23 | 12:42 /mi |
| 478 | 2012 | Rebecca Smith | Female | — | F 20-24 | 44 | 25:23 | 12:42 /mi |
| 479 | 22 | Jennifer Haarr | Female | — | F 45-49 | 23 | 25:24 | 12:42 /mi |
| 480 | 277 | Inger Curtis | Female | — | F 50-54 | 21 | 25:25 | 12:42 /mi |
| 481 | 338 | Autumn Powers | Female | — | F 16-19 | 26 | 25:26 | 12:43 /mi |
| 482 | 330 | Cindy Richards | Female | — | F 60-64 | 11 | 25:27 | 12:43 /mi |
| 483 | 340 | Elizabeth Powers | Female | — | F 50-54 | 22 | 25:27 | 12:44 /mi |
| 484 | 3940 | Sadie Bandstra | Female | — | F 25-29 | 44 | 25:32 | 12:46 /mi |
| 485 | 4042 | Nina Hill | Female | — | F 35-39 | 42 | 25:33 | 12:46 /mi |
| 486 | 2956 | Cadence Serfazo | Female | — | F 13-15 | 52 | 25:34 | 12:47 /mi |
| 487 | 2198 | Patti Ballock | Female | — | F 60-64 | 12 | 25:34 | 12:47 /mi |
| 488 | 3938 | Sally Bandstra | Female | — | F 55-59 | 21 | 25:34 | 12:47 /mi |
| 489 | 2199 | Meghan Ballock | Female | — | F 25-29 | 45 | 25:34 | 12:47 /mi |
| 490 | 4940 | P. Welch | Female | — | — | — | 25:35 | 12:48 /mi |
| 491 | 3191 | Dana Eshelman | Female | — | F 30-34 | 37 | 25:36 | 12:48 /mi |
| 492 | 3192 | M. Eshelman | Female | — | — | — | 25:36 | 12:48 /mi |
| 493 | 410 | J. Pretty On Top | Female | — | — | — | 25:38 | 12:49 /mi |
| 494 | 515 | Lana Sangmeister | Female | — | F 65-69 | 9 | 25:38 | 12:49 /mi |
| 495 | 3976 | V. Spooner | Female | — | — | — | 25:43 | 12:51 /mi |
| 496 | 4535 | Rachel James | Female | — | F 40-44 | 46 | 25:43 | 12:51 /mi |
| 497 | 3712 | Tempe Lemon | Female | — | F 75-79 | 2 | 25:43 | 12:51 /mi |
| 498 | 3619 | Kelly Miner | Female | — | F 60-64 | 13 | 25:43 | 12:52 /mi |
| 499 | 285 | Richelle Selleck | Female | — | F 55-59 | 22 | 25:45 | 12:52 /mi |
| 500 | 2730 | linda markel | Female | — | F 70-74 | 4 | 25:49 | 12:54 /mi |
Showing 451–500 of 3901 results